Time;durP1;ratioP1;P1;durP2;ratioP2;P2;SDS_P1;SDS_P2;PMS_P1;PMS_P2;Temp;Humidity;BMP_temperature;BMP_pressure;BME280_temperature;BME280_humidity;BME280_pressure;Samples;Min_cycle;Max_cycle;Signal;HPM_P1;HPM_P2
2022/09/08 00:01:12;;;;;;;35.15;14.05;;;;;;;4.53;92.17;99660.45;1711179;82;21212;-68
2022/09/08 00:03:38;;;;;;;35.45;15.45;;;;;;;4.56;92.50;99664.52;1712809;82;21048;-68
2022/09/08 00:06:11;;;;;;;27.85;14.05;;;;;;;4.53;92.67;99664.52;1681962;84;20971;-68
2022/09/08 00:08:39;;;;;;;32.48;13.68;;;;;;;4.55;93.00;99663.70;1713947;82;20907;-69
2022/09/08 00:11:07;;;;;;;30.70;14.93;;;;;;;4.55;92.74;99665.06;1680652;84;20951;-69
2022/09/08 00:13:38;;;;;;;31.15;14.53;;;;;;;4.56;92.85;99664.52;1670536;85;21416;-69
2022/09/08 00:16:07;;;;;;;34.30;14.68;;;;;;;4.54;92.91;99660.72;1666082;85;20983;-69
2022/09/08 00:18:35;;;;;;;33.73;14.47;;;;;;;4.54;92.96;99658.00;1678714;85;21093;-68
2022/09/08 00:21:01;;;;;;;32.08;13.65;;;;;;;4.53;92.96;99651.48;1718330;83;20894;-69
2022/09/08 00:23:28;;;;;;;31.10;13.20;;;;;;;4.52;92.89;99646.58;1721896;83;21485;-69
2022/09/08 00:25:55;;;;;;;38.98;15.55;;;;;;;4.51;92.77;99652.30;1721873;83;21145;-68
2022/09/08 00:28:21;;;;;;;27.60;13.90;;;;;;;4.46;92.80;99653.11;1721186;83;21508;-68
2022/09/08 00:30:48;;;;;;;30.68;14.93;;;;;;;4.42;93.02;99646.59;1721795;82;20922;-68
2022/09/08 00:33:14;;;;;;;34.90;14.83;;;;;;;4.38;93.25;99641.42;1720354;83;21084;-69
2022/09/08 00:35:44;;;;;;;33.92;13.90;;;;;;;4.38;93.25;99641.42;1715522;82;21014;-69
2022/09/08 00:38:12;;;;;;;30.85;15.05;;;;;;;4.34;93.17;99630.02;1722056;83;21189;-69
2022/09/08 00:40:45;;;;;;;31.90;14.65;;;;;;;4.37;93.18;99637.08;1721780;83;21013;-68
2022/09/08 00:43:33;;;;;;;32.93;13.72;;;;;;;4.37;93.41;99628.92;1721621;83;21555;-68
2022/09/08 00:46:12;;;;;;;28.12;13.38;;;;;;;4.35;93.11;99632.45;1720731;82;20893;-68
2022/09/08 00:48:44;;;;;;;29.92;13.88;;;;;;;4.27;92.95;99627.56;1731042;81;21063;-68
2022/09/08 00:51:13;;;;;;;32.13;13.88;;;;;;;4.23;93.28;99614.25;1718335;82;21782;-68
2022/09/08 00:53:39;;;;;;;30.08;13.90;;;;;;;4.21;93.38;99617.23;1691670;83;21042;-69
2022/09/08 00:56:07;;;;;;;30.50;14.10;;;;;;;4.20;93.46;99613.44;1679701;84;21608;-70
2022/09/08 00:58:35;;;;;;;38.25;15.38;;;;;;;4.21;93.35;99623.22;1654252;85;21446;-69
2022/09/08 01:01:02;;;;;;;29.70;14.05;;;;;;;4.17;93.37;99628.37;1655274;84;21608;-69
2022/09/08 01:03:31;;;;;;;37.13;15.90;;;;;;;4.15;93.48;99623.76;1682099;85;21187;-68
2022/09/08 01:06:21;;;;;;;31.95;15.43;;;;;;;4.12;93.27;99639.79;1681701;84;21597;-69
2022/09/08 01:14:49;;;;;;;33.95;14.47;;;;;;;4.01;94.03;99624.05;1720480;82;21016;-69
2022/09/08 01:17:26;;;;;;;32.08;14.87;;;;;;;4.03;94.42;99627.86;1719078;82;21235;-69
2022/09/08 01:19:53;;;;;;;37.45;15.40;;;;;;;4.03;94.44;99635.47;1716779;82;20978;-69
2022/09/08 01:23:04;;;;;;;30.10;14.93;;;;;;;3.98;94.54;99628.13;1721124;82;20988;-69
2022/09/08 01:26:08;;;;;;;30.47;14.83;;;;;;;4.01;94.57;99631.39;1717840;82;21059;-69
2022/09/08 01:28:39;;;;;;;41.35;16.42;;;;;;;4.00;94.59;99635.19;1718423;82;21468;-69
2022/09/08 01:31:05;;;;;;;36.50;16.55;;;;;;;4.02;95.43;99631.66;1719345;82;21753;-69
2022/09/08 01:33:32;;;;;;;31.90;14.60;;;;;;;4.07;95.75;99637.88;1716224;82;21156;-69
2022/09/08 01:35:59;;;;;;;28.60;14.58;;;;;;;4.14;95.79;99634.90;1723116;82;21119;-69
2022/09/08 01:38:26;;;;;;;30.05;14.47;;;;;;;4.18;95.73;99633.27;1718992;82;20985;-70
2022/09/08 01:40:54;;;;;;;32.17;15.58;;;;;;;4.19;95.72;99633.55;1720424;82;21072;-70
2022/09/08 01:43:21;;;;;;;39.88;17.05;;;;;;;4.19;95.72;99633.55;1716930;82;21136;-69
2022/09/08 01:45:47;;;;;;;30.80;15.58;;;;;;;4.19;95.79;99625.39;1722162;82;21040;-70
2022/09/08 01:48:14;;;;;;;37.17;16.07;;;;;;;4.19;95.82;99633.00;1721285;82;21012;-69
2022/09/08 01:50:41;;;;;;;30.72;15.58;;;;;;;4.19;95.82;99633.00;1717023;82;21036;-69
2022/09/08 01:53:08;;;;;;;28.75;14.38;;;;;;;4.22;96.09;99631.09;1719135;82;20981;-69
2022/09/08 01:55:35;;;;;;;30.23;15.60;;;;;;;4.23;96.21;99619.69;1717776;82;21037;-69
2022/09/08 01:58:02;;;;;;;34.88;16.25;;;;;;;4.20;96.89;99628.37;1719719;82;20917;-69
2022/09/08 02:00:28;;;;;;;34.55;15.53;;;;;;;4.20;96.89;99628.37;1719959;82;21952;-68
2022/09/08 02:02:55;;;;;;;35.58;15.15;;;;;;;4.23;97.21;99631.91;1719558;81;21017;-68
2022/09/08 02:05:22;;;;;;;34.60;15.70;;;;;;;4.21;96.88;99625.39;1718020;82;21028;-68
2022/09/08 02:07:48;;;;;;;37.08;16.15;;;;;;;4.21;97.12;99626.75;1719026;82;21752;-69
2022/09/08 02:10:15;;;;;;;39.65;15.95;;;;;;;4.24;97.24;99617.23;1720484;82;21575;-69
2022/09/08 02:12:42;;;;;;;34.27;15.72;;;;;;;4.26;97.25;99627.30;1717655;82;21147;-68
2022/09/08 02:15:11;;;;;;;32.50;15.50;;;;;;;4.29;97.33;99628.92;1718840;82;21005;-70
2022/09/08 02:17:38;;;;;;;43.17;17.25;;;;;;;4.33;97.46;99622.40;1718369;82;21005;-70
2022/09/08 02:20:06;;;;;;;34.13;17.48;;;;;;;4.29;97.68;99616.70;1720479;82;21115;-70
2022/09/08 02:22:32;;;;;;;34.43;15.90;;;;;;;4.36;98.14;99624.58;1717722;82;21480;-70
2022/09/08 02:24:59;;;;;;;35.80;16.70;;;;;;;4.45;98.47;99622.94;1717525;82;21017;-70
2022/09/08 02:27:25;;;;;;;44.15;17.62;;;;;;;4.49;98.45;99613.69;1719825;82;20961;-70
2022/09/08 02:29:52;;;;;;;33.85;15.53;;;;;;;4.51;98.34;99613.69;1719109;82;20886;-69
2022/09/08 02:32:18;;;;;;;39.53;17.48;;;;;;;4.51;98.59;99612.33;1719683;82;21146;-70
2022/09/08 02:34:45;;;;;;;35.10;15.55;;;;;;;4.56;98.60;99615.05;1715170;82;20921;-69
2022/09/08 02:37:11;;;;;;;39.13;16.52;;;;;;;4.56;98.37;99622.38;1720916;82;20925;-70
2022/09/08 02:39:39;;;;;;;33.53;17.00;;;;;;;4.58;98.49;99622.38;1719696;82;21062;-70
2022/09/08 02:42:09;;;;;;;34.03;15.90;;;;;;;4.58;98.49;99622.38;1718426;82;21012;-70
2022/09/08 02:44:36;;;;;;;41.40;18.37;;;;;;;4.59;98.60;99624.01;1720444;82;21569;-70
2022/09/08 02:47:02;;;;;;;35.20;17.17;;;;;;;4.62;98.76;99632.16;1717652;82;21000;-72
2022/09/08 02:49:31;;;;;;;41.55;17.00;;;;;;;4.63;98.84;99627.78;1719084;82;21643;-71
2022/09/08 02:51:58;;;;;;;36.20;16.50;;;;;;;4.63;98.96;99616.90;1718208;82;21024;-71
2022/09/08 02:54:25;;;;;;;49.65;18.00;;;;;;;4.64;98.93;99619.08;1719034;82;21528;-71
2022/09/08 02:56:51;;;;;;;36.48;16.75;;;;;;;4.67;99.29;99609.02;1720457;82;21102;-72
2022/09/08 02:59:18;;;;;;;42.58;18.75;;;;;;;4.67;99.29;99609.02;1719972;82;20957;-69
2022/09/08 03:01:45;;;;;;;39.48;18.52;;;;;;;4.69;99.15;99616.34;1719038;82;21461;-70
2022/09/08 03:04:11;;;;;;;39.13;18.00;;;;;;;4.68;99.05;99617.44;1719010;82;21166;-70
2022/09/08 03:06:38;;;;;;;43.70;19.05;;;;;;;4.67;99.34;99608.20;1718383;82;20997;-67
2022/09/08 03:09:05;;;;;;;35.65;17.10;;;;;;;4.66;99.37;99615.54;1716393;82;21132;-67
2022/09/08 03:11:33;;;;;;;35.30;16.97;;;;;;;4.65;99.08;99616.08;1720923;82;21100;-67
2022/09/08 03:14:00;;;;;;;39.67;18.77;;;;;;;4.61;98.99;99609.59;1715739;82;21167;-67
2022/09/08 03:16:27;;;;;;;37.88;18.52;;;;;;;4.55;98.76;99607.97;1720348;82;21564;-70
2022/09/08 03:18:54;;;;;;;39.60;17.12;;;;;;;4.50;99.00;99610.70;1718840;82;21025;-71
2022/09/08 03:21:20;;;;;;;43.38;17.55;;;;;;;4.48;98.76;99610.16;1719644;82;21069;-70
2022/09/08 03:23:48;;;;;;;45.73;18.07;;;;;;;4.40;98.36;99607.99;1721874;82;20929;-71
2022/09/08 03:26:18;;;;;;;35.40;15.88;;;;;;;4.32;97.90;99605.82;1721044;82;21012;-71
2022/09/08 03:28:45;;;;;;;51.63;18.82;;;;;;;4.26;97.90;99616.42;1721678;82;20981;-71
2022/09/08 03:31:15;;;;;;;41.40;17.82;;;;;;;4.19;97.97;99611.80;1719178;82;21022;-70
2022/09/08 03:33:42;;;;;;;34.48;17.77;;;;;;;4.12;98.00;99599.85;1717389;82;21831;-72
2022/09/08 03:36:10;;;;;;;41.83;17.52;;;;;;;4.12;97.99;99607.19;1720475;82;21048;-72
2022/09/08 03:38:37;;;;;;;40.12;17.92;;;;;;;4.07;97.94;99608.00;1719593;82;21049;-70
2022/09/08 03:41:10;;;;;;;42.78;18.95;;;;;;;4.04;97.82;99603.68;1720338;82;21119;-71
2022/09/08 03:43:37;;;;;;;39.58;17.77;;;;;;;4.01;98.10;99605.58;1721205;82;21001;-71
2022/09/08 03:46:07;;;;;;;39.70;18.10;;;;;;;3.99;98.33;99607.21;1720823;81;21143;-71
2022/09/08 03:48:34;;;;;;;46.08;18.95;;;;;;;3.95;98.32;99606.13;1721119;82;21091;-71
2022/09/08 03:51:22;;;;;;;49.13;18.55;;;;;;;3.95;98.70;99611.02;1716739;82;21076;-71
2022/09/08 03:53:47;;;;;;;40.12;17.95;;;;;;;3.95;98.86;99606.13;1730267;81;20910;-70
2022/09/08 03:56:13;;;;;;;35.83;17.67;;;;;;;3.95;99.14;99606.94;1726566;81;20981;-71
2022/09/08 03:58:40;;;;;;;42.67;17.98;;;;;;;3.99;99.17;99607.21;1717974;82;21730;-70
2022/09/08 04:01:11;;;;;;;34.58;17.55;;;;;;;4.02;99.31;99611.29;1718799;82;20954;-70
2022/09/08 04:03:37;;;;;;;52.50;18.42;;;;;;;4.05;99.34;99606.64;1719376;82;21215;-70
2022/09/08 04:06:04;;;;;;;47.83;20.32;;;;;;;4.11;99.72;99614.52;1717120;82;21610;-70
2022/09/08 04:08:31;;;;;;;210.82;24.87;;;;;;;4.11;99.72;99614.52;1718938;82;21615;-70
2022/09/08 04:10:59;;;;;;;54.23;19.65;;;;;;;4.16;100.00;99613.70;1718930;82;21082;-70
2022/09/08 04:13:26;;;;;;;42.23;19.10;;;;;;;4.24;100.00;99614.52;1718574;82;21008;-71
2022/09/08 04:15:53;;;;;;;48.02;18.42;;;;;;;4.27;100.00;99613.44;1718153;82;21175;-71
2022/09/08 04:18:20;;;;;;;48.70;18.10;;;;;;;4.36;100.00;99616.97;1719877;82;21519;-71
2022/09/08 04:20:59;;;;;;;61.80;20.43;;;;;;;4.45;100.00;99625.66;1718048;82;21080;-70
2022/09/08 04:23:31;;;;;;;49.67;20.97;;;;;;;4.54;100.00;99619.94;1719992;82;20992;-71
2022/09/08 04:26:05;;;;;;;50.88;21.97;;;;;;;4.64;100.00;99614.45;1721165;82;21546;-72
2022/09/08 04:28:34;;;;;;;53.75;22.00;;;;;;;4.92;100.00;99614.39;1719015;82;21059;-72
2022/09/08 04:31:06;;;;;;;47.67;21.82;;;;;;;4.92;100.00;99614.39;1718412;82;21056;-77
2022/09/08 04:33:32;;;;;;;55.98;22.58;;;;;;;5.09;100.00;99617.33;1728499;81;21643;-70
2022/09/08 04:36:08;;;;;;;49.08;20.77;;;;;;;5.24;100.00;99613.97;1726287;81;21204;-70
2022/09/08 04:38:35;;;;;;;50.12;20.90;;;;;;;5.40;100.00;99617.44;1725898;81;20996;-69
2022/09/08 04:41:08;;;;;;;46.73;20.65;;;;;;;5.58;100.00;99613.27;1648167;84;21167;-70
2022/09/08 04:43:34;;;;;;;51.68;19.12;;;;;;;5.78;100.00;99623.20;1714987;81;21042;-73
2022/09/08 04:46:07;;;;;;;57.23;20.85;;;;;;;6.01;100.00;99622.53;1712730;81;21028;-75
2022/09/08 04:48:34;;;;;;;47.40;20.05;;;;;;;6.28;100.00;99628.87;1719403;81;21631;-72
2022/09/08 04:51:02;;;;;;;50.83;18.42;;;;;;;6.53;100.00;99631.34;1721127;82;21500;-73
2022/09/08 04:53:31;;;;;;;49.38;18.45;;;;;;;6.74;100.00;99632.52;1717049;81;21132;-85
2022/09/08 04:55:58;;;;;;;46.73;17.67;;;;;;;6.90;100.00;99633.98;1719823;82;20956;-86
2022/09/08 04:58:25;;;;;;;38.98;15.80;;;;;;;7.04;98.98;99629.44;1721094;82;20981;-86
2022/09/08 05:00:51;;;;;;;176.65;21.80;;;;;;;7.19;98.08;99627.90;1719811;82;21051;-71
2022/09/08 05:03:18;;;;;;;36.35;15.28;;;;;;;7.35;97.26;99630.45;1716899;82;20885;-78
2022/09/08 05:05:48;;;;;;;43.75;16.85;;;;;;;7.50;96.92;99631.62;1719104;82;21013;-74
2022/09/08 05:08:16;;;;;;;35.55;16.75;;;;;;;7.66;95.76;99625.38;1719989;82;20973;-74
2022/09/08 05:10:44;;;;;;;35.43;16.85;;;;;;;7.83;94.65;99631.95;1710038;82;21005;-81
2022/09/08 05:13:12;;;;;;;48.23;18.00;;;;;;;7.97;93.64;99625.75;1720941;82;21344;-81
2022/09/08 05:15:38;;;;;;;31.68;15.85;;;;;;;8.11;92.63;99627.41;1721980;82;21378;-76
2022/09/08 05:18:07;;;;;;;32.50;15.68;;;;;;;8.25;91.74;99626.91;1702900;82;20989;-78
2022/09/08 05:20:34;;;;;;;34.35;14.05;;;;;;;8.44;90.88;99630.20;1718049;82;21517;-77
2022/09/08 05:23:05;;;;;;;35.92;14.53;;;;;;;8.62;89.89;99634.00;1717884;80;21033;-81
2022/09/08 05:25:36;;;;;;;31.90;13.40;;;;;;;8.80;88.92;99637.20;1716229;81;21713;-77
2022/09/08 05:28:04;;;;;;;30.88;13.38;;;;;;;8.99;88.49;99634.39;1717039;82;20908;-80
2022/09/08 05:30:36;;;;;;;30.12;13.30;;;;;;;9.19;87.55;99639.48;1711405;82;20990;-81
2022/09/08 05:33:07;;;;;;;27.70;14.35;;;;;;;9.39;86.39;99638.23;1691433;83;20999;-76
2022/09/08 05:35:39;;;;;;;31.30;12.68;;;;;;;9.58;86.24;99634.26;1708448;82;21086;-82
2022/09/08 05:38:10;;;;;;;;;;;;;;;9.79;85.97;99633.81;1714791;82;21094;-76
2022/09/08 05:40:42;;;;;;;25.32;11.45;;;;;;;10.02;84.24;99640.13;1699738;83;20260;-76
2022/09/08 05:43:16;;;;;;;22.82;9.75;;;;;;;10.22;83.36;99640.49;1715596;82;21043;-73
2022/09/08 05:45:47;;;;;;;31.05;10.48;;;;;;;10.43;82.23;99639.41;1690557;83;22187;-78
2022/09/08 05:48:18;;;;;;;21.55;10.08;;;;;;;10.72;79.73;99642.27;1671935;85;21049;-75
2022/09/08 05:50:46;;;;;;;25.02;8.28;;;;;;;11.01;79.84;99637.63;1668307;85;21166;-70
2022/09/08 05:53:15;;;;;;;26.87;7.75;;;;;;;11.31;76.97;99635.97;1662978;85;21056;-75
2022/09/08 05:55:48;;;;;;;15.70;7.40;;;;;;;11.57;74.86;99639.58;1664267;85;20925;-75
2022/09/08 05:58:14;;;;;;;22.42;7.17;;;;;;;11.78;71.91;99637.88;1664889;85;21064;-72
2022/09/08 06:00:41;;;;;;;17.32;6.90;;;;;;;12.00;71.24;99631.44;1667596;85;21159;-75
2022/09/08 06:03:11;;;;;;;20.62;6.75;;;;;;;12.25;70.08;99640.80;1671291;84;22196;-72
2022/09/08 06:05:40;;;;;;;17.37;7.10;;;;;;;12.48;68.26;99635.92;1675054;83;21295;-77
2022/09/08 06:08:06;;;;;;;10.45;5.83;;;;;;;12.71;66.30;99637.91;1675875;84;21595;-76
2022/09/08 06:10:37;;;;;;;20.62;6.03;;;;;;;12.93;65.47;99640.98;1677907;84;21034;-77
2022/09/08 06:13:08;;;;;;;17.67;6.78;;;;;;;13.13;63.92;99642.47;1685236;83;21009;-68
2022/09/08 06:15:36;;;;;;;21.42;6.12;;;;;;;13.39;63.25;99640.17;1683080;83;21410;-69
2022/09/08 06:18:04;;;;;;;15.83;6.28;;;;;;;13.63;62.39;99643.13;1712340;82;21174;-70
2022/09/08 06:20:31;;;;;;;28.00;6.00;;;;;;;13.84;61.38;99645.34;1712063;82;21615;-74
2022/09/08 06:22:58;;;;;;;20.23;5.75;;;;;;;14.01;60.05;99644.96;1720015;82;21054;-73
2022/09/08 06:25:25;;;;;;;14.93;5.20;;;;;;;14.14;60.48;99650.79;1714336;82;21018;-75
2022/09/08 06:28:06;;;;;;;14.05;5.60;;;;;;;14.29;59.80;99647.42;1714472;82;21124;-69
2022/09/08 06:30:40;;;;;;;15.53;5.45;;;;;;;14.41;57.82;99646.67;1690733;83;21056;-66
2022/09/08 06:33:13;;;;;;;15.53;6.05;;;;;;;14.50;55.92;99652.36;1710886;82;20988;-71
2022/09/08 06:35:51;;;;;;;14.33;5.33;;;;;;;14.58;56.10;99649.85;1750121;80;21598;-68
2022/09/08 06:38:44;;;;;;;11.50;5.12;;;;;;;14.61;55.79;99651.94;1716005;82;21012;-68
2022/09/08 06:41:25;;;;;;;17.30;5.15;;;;;;;14.69;55.87;99658.77;1682815;84;39217;-69
2022/09/08 06:43:58;;;;;;;9.58;5.55;;;;;;;14.85;54.93;99658.92;1740489;81;21834;-78
2022/09/08 06:46:40;;;;;;;10.05;5.50;;;;;;;14.97;54.20;99661.72;1696812;83;21330;-67
2022/09/08 06:49:13;;;;;;;16.75;6.87;;;;;;;15.11;53.02;99662.77;1716520;82;21058;-70
2022/09/08 06:52:00;;;;;;;16.20;6.90;;;;;;;15.20;51.98;99662.89;1722730;82;21575;-71
2022/09/08 06:54:41;;;;;;;19.48;6.72;;;;;;;15.27;52.07;99662.33;1710684;81;21737;-80
2022/09/08 06:57:42;;;;;;;10.10;5.72;;;;;;;15.43;53.68;99667.99;1715660;83;21028;-74
2022/09/08 07:00:19;;;;;;;14.98;5.78;;;;;;;15.65;52.83;99662.00;1712476;82;21010;-72
2022/09/08 07:03:03;;;;;;;34.83;5.70;;;;;;;15.91;52.60;99660.25;1711895;82;22156;-75
2022/09/08 07:06:06;;;;;;;16.10;5.03;;;;;;;16.12;51.28;99662.30;1712272;82;21205;-75
2022/09/08 07:08:59;;;;;;;14.55;4.92;;;;;;;16.31;50.83;99660.25;1707317;82;21175;-73
2022/09/08 07:12:00;;;;;;;9.58;4.25;;;;;;;16.46;48.04;99655.36;1710106;82;21070;-76
2022/09/08 07:15:00;;;;;;;13.65;4.75;;;;;;;16.55;48.66;99661.33;1696561;83;21116;-73
2022/09/08 07:17:50;;;;;;;6.87;4.00;;;;;;;16.72;48.85;99660.48;1712788;82;21213;-74
2022/09/08 07:20:20;;;;;;;6.12;3.95;;;;;;;16.93;46.87;99667.16;1713179;82;21100;-76
2022/09/08 07:22:55;;;;;;;12.25;6.72;;;;;;;17.11;47.17;99666.25;1720756;81;23117;-73
2022/09/08 07:25:52;;;;;;;30.80;16.52;;;;;;;17.29;47.73;99666.71;1707225;82;21036;-70
2022/09/08 07:28:23;;;;;;;16.55;8.63;;;;;;;17.51;46.52;99670.22;1704865;82;21449;-78
2022/09/08 07:31:01;;;;;;;15.45;5.37;;;;;;;17.78;45.32;99668.53;1646371;83;21215;-86
2022/09/08 07:33:40;;;;;;;6.40;2.50;;;;;;;17.96;43.65;99670.30;1713344;82;21020;-76
2022/09/08 07:36:39;;;;;;;4.70;2.40;;;;;;;18.06;40.15;99673.91;1686046;82;21130;-75
2022/09/08 07:39:21;;;;;;;6.87;2.98;;;;;;;18.14;41.26;99678.45;1727073;81;21028;-82
2022/09/08 07:41:54;;;;;;;5.22;1.72;;;;;;;18.35;41.99;99676.73;1712665;82;20972;-77
2022/09/08 07:44:21;;;;;;;8.90;2.15;;;;;;;18.65;40.75;99681.14;1719009;81;21626;-77
2022/09/08 07:47:11;;;;;;;;;;;;;;;18.98;40.06;99682.80;1715643;82;21032;-76
2022/09/08 07:50:11;;;;;;;8.50;2.25;;;;;;;19.40;38.91;99678.56;1721235;81;21286;-75
2022/09/08 07:52:51;;;;;;;3.65;2.10;;;;;;;19.88;38.63;99678.14;1719319;81;21546;-77
2022/09/08 07:55:40;;;;;;;5.97;2.25;;;;;;;20.46;36.09;99683.35;1712316;82;21073;-77
2022/09/08 07:58:31;;;;;;;4.72;2.10;;;;;;;20.91;35.75;99671.92;1747857;80;21056;-77
2022/09/08 08:01:04;;;;;;;4.85;2.37;;;;;;;21.41;35.35;99669.64;1678399;84;21077;-76
2022/09/08 08:04:00;;;;;;;6.78;2.33;;;;;;;21.86;33.59;99680.19;1633719;86;20990;-84
2022/09/08 08:06:51;;;;;;;7.37;2.10;;;;;;;22.06;33.75;99674.53;1682325;83;21039;-73
2022/09/08 08:09:29;;;;;;;9.48;2.47;;;;;;;22.28;31.96;99672.67;1681946;83;21099;-75
2022/09/08 08:12:11;;;;;;;5.00;2.10;;;;;;;22.48;31.65;99673.98;1704109;81;21531;-75
2022/09/08 08:15:03;;;;;;;6.92;2.60;;;;;;;22.64;31.46;99663.22;1720656;81;21064;-77
2022/09/08 08:17:56;;;;;;;3.90;2.10;;;;;;;22.76;31.83;99667.66;1713900;82;21255;-76
2022/09/08 08:20:53;;;;;;;14.23;2.47;;;;;;;23.06;30.91;99663.19;1662718;86;21126;-75
2022/09/08 08:23:47;;;;;;;5.53;1.98;;;;;;;23.31;31.13;99668.20;1666891;84;21185;-77
2022/09/08 08:27:03;;;;;;;3.22;1.90;;;;;;;23.56;29.63;99659.84;1667824;83;21248;-75
2022/09/08 08:29:58;;;;;;;8.50;2.05;;;;;;;23.73;29.94;99659.61;1647850;86;21075;-80
2022/09/08 08:32:35;;;;;;;3.83;1.80;;;;;;;23.89;29.46;99656.39;1645178;85;21109;-73
2022/09/08 08:35:30;;;;;;;9.93;2.35;;;;;;;23.90;28.82;99660.80;1643955;85;21513;-77
2022/09/08 08:37:57;;;;;;;5.33;2.27;;;;;;;24.01;28.23;99656.77;1633407;84;21129;-70
2022/09/08 08:40:34;;;;;;;5.62;2.87;;;;;;;24.10;27.97;99654.16;1604797;86;21110;-75
2022/09/08 08:43:26;;;;;;;5.80;2.35;;;;;;;24.04;28.18;99644.75;1672537;85;21104;-85
2022/09/08 08:46:24;;;;;;;;;;;;;;;24.19;28.74;99643.31;1667770;85;21287;-77
2022/09/08 08:49:08;;;;;;;13.93;2.55;;;;;;;24.63;28.07;99649.77;1639812;85;20097;-76
2022/09/08 08:52:07;;;;;;;4.12;2.08;;;;;;;24.86;28.13;99645.81;1621922;87;21039;-79
2022/09/08 08:55:12;;;;;;;5.53;2.33;;;;;;;24.93;27.28;99645.77;1658570;85;21044;-74
2022/09/08 08:58:00;;;;;;;6.12;2.22;;;;;;;24.78;26.93;99656.91;1678129;84;21137;-79
2022/09/08 09:00:56;;;;;;;7.50;2.52;;;;;;;24.75;27.78;99651.31;1654451;85;21250;-79
2022/09/08 09:03:47;;;;;;;6.28;2.58;;;;;;;24.74;27.02;99639.89;1684674;84;20931;-81
2022/09/08 09:06:56;;;;;;;3.65;2.30;;;;;;;24.85;27.56;99630.78;1648881;85;21031;-79
2022/09/08 09:09:54;;;;;;;6.75;2.58;;;;;;;25.04;27.43;99633.10;1642725;84;21112;-76
2022/09/08 09:12:43;;;;;;;7.70;2.30;;;;;;;25.13;26.81;99630.64;1671650;84;21066;-70
2022/09/08 09:15:36;;;;;;;6.60;2.22;;;;;;;25.18;27.00;99629.40;1658371;84;21685;-75
2022/09/08 09:18:45;;;;;;;5.08;2.20;;;;;;;25.26;26.34;99633.76;1667772;84;21098;-74
2022/09/08 09:21:45;;;;;;;10.98;2.40;;;;;;;25.36;26.10;99623.65;1669601;84;21072;-72
2022/09/08 09:24:41;;;;;;;5.97;2.00;;;;;;;25.50;26.34;99629.92;1696941;84;21023;-74
2022/09/08 09:27:24;;;;;;;9.48;2.20;;;;;;;25.77;26.16;99634.94;1680044;84;21616;-72
2022/09/08 09:29:58;;;;;;;19.03;2.80;;;;;;;25.82;25.86;99640.91;1672420;84;21124;-75
2022/09/08 09:32:44;;;;;;;14.10;2.47;;;;;;;25.80;26.15;99642.55;1609142;84;21651;-81
2022/09/08 09:35:42;;;;;;;8.00;1.87;;;;;;;25.83;25.42;99639.70;1649992;84;20967;-72
2022/09/08 09:38:28;;;;;;;7.45;1.98;;;;;;;25.82;24.94;99635.90;1649697;85;21703;-76
2022/09/08 09:41:27;;;;;;;3.87;1.70;;;;;;;25.74;25.61;99631.55;1599898;87;21494;-74
2022/09/08 09:44:48;;;;;;;7.03;2.20;;;;;;;25.68;24.48;99626.98;1668625;84;21180;-72
2022/09/08 09:47:55;;;;;;;7.30;2.35;;;;;;;25.45;25.55;99630.37;1647670;85;20955;-78
2022/09/08 09:51:07;;;;;;;9.33;2.10;;;;;;;25.73;24.94;99634.17;1632444;85;21066;-77
2022/09/08 09:53:43;;;;;;;4.58;2.00;;;;;;;25.92;24.70;99637.20;1651471;85;21445;-78
2022/09/08 09:56:52;;;;;;;10.72;1.87;;;;;;;26.00;24.23;99643.52;1637388;85;21078;-72
2022/09/08 09:59:30;;;;;;;5.72;1.90;;;;;;;26.09;24.47;99647.25;1666073;83;21751;-78
2022/09/08 10:02:17;;;;;;;4.10;1.75;;;;;;;26.45;23.28;99647.68;1652126;85;20915;-81
2022/09/08 10:05:12;;;;;;;8.28;2.08;;;;;;;26.53;22.40;99646.38;1646835;85;21075;-75
2022/09/08 10:08:05;;;;;;;2.47;1.92;;;;;;;26.27;22.79;99647.25;1663065;84;21491;-74
2022/09/08 10:11:27;;;;;;;6.15;1.95;;;;;;;26.09;23.54;99645.23;1671077;84;21048;-73
2022/09/08 10:14:37;;;;;;;4.60;2.27;;;;;;;26.19;23.38;99640.71;1680609;84;21936;-76
2022/09/08 10:17:25;;;;;;;6.30;2.25;;;;;;;25.82;23.77;99644.34;1673030;84;20895;-71
2022/09/08 10:20:48;;;;;;;10.53;2.20;;;;;;;25.85;24.02;99640.08;1675656;84;21645;-74
2022/09/08 10:23:54;;;;;;;10.15;2.22;;;;;;;25.88;24.26;99644.88;1676306;84;20984;-69
2022/09/08 10:26:51;;;;;;;4.78;1.90;;;;;;;25.93;23.89;99647.84;1671431;84;21570;-68
2022/09/08 10:29:36;;;;;;;4.92;2.10;;;;;;;25.99;23.87;99646.17;1684378;84;21268;-75
2022/09/08 10:32:18;;;;;;;3.42;2.33;;;;;;;26.22;22.39;99646.91;1669605;84;20931;-74
2022/09/08 10:35:24;;;;;;;3.45;2.37;;;;;;;26.21;23.63;99638.28;1664645;84;21112;-77
2022/09/08 10:38:22;;;;;;;6.53;2.30;;;;;;;26.21;22.82;99648.13;1669334;84;21038;-77
2022/09/08 10:41:20;;;;;;;6.53;2.30;;;;;;;26.19;24.04;99641.51;1661644;84;21209;-75
2022/09/08 10:44:04;;;;;;;4.85;2.20;;;;;;;26.43;23.62;99643.87;1666233;84;21189;-71
2022/09/08 10:47:15;;;;;;;10.45;2.67;;;;;;;26.34;23.92;99637.16;1635953;85;20989;-71
2022/09/08 10:50:18;;;;;;;3.92;2.20;;;;;;;26.33;23.45;99634.95;1621541;87;21059;-69
2022/09/08 10:53:08;;;;;;;8.20;2.40;;;;;;;26.43;22.64;99637.45;1603871;88;21015;-71
2022/09/08 10:56:04;;;;;;;3.45;2.35;;;;;;;26.41;23.34;99635.67;1655821;84;21002;-73
2022/09/08 10:59:18;;;;;;;8.03;2.30;;;;;;;26.47;22.87;99629.77;1677056;84;21848;-74
2022/09/08 11:02:09;;;;;;;2.95;2.05;;;;;;;26.58;23.44;99626.97;1664126;84;21120;-73
2022/09/08 11:05:20;;;;;;;6.50;2.58;;;;;;;26.79;23.80;99626.50;1679961;84;21602;-75
2022/09/08 11:08:25;;;;;;;5.90;1.82;;;;;;;26.81;22.89;99620.63;1651759;84;21005;-76
2022/09/08 11:11:20;;;;;;;6.53;2.00;;;;;;;26.76;22.82;99625.33;1683877;84;21036;-76
2022/09/08 11:14:19;;;;;;;7.17;1.95;;;;;;;26.70;22.57;99627.02;1594369;87;21127;-73
2022/09/08 11:16:55;;;;;;;5.45;2.30;;;;;;;26.68;21.94;99624.44;1640469;86;21032;-74
2022/09/08 11:19:29;;;;;;;12.65;2.30;;;;;;;26.43;22.33;99624.17;1639806;86;21190;-74
2022/09/08 11:22:35;;;;;;;4.87;2.65;;;;;;;26.43;22.89;99625.59;1584730;89;20947;-73
2022/09/08 11:25:19;;;;;;;3.17;1.95;;;;;;;26.60;23.51;99623.73;1645401;85;21000;-69
2022/09/08 11:28:43;;;;;;;5.60;2.45;;;;;;;26.76;21.71;99626.73;1655559;85;21849;-80
2022/09/08 11:31:35;;;;;;;5.28;2.17;;;;;;;26.88;21.58;99625.37;1651007;85;20913;-77
2022/09/08 11:34:42;;;;;;;26.45;3.72;;;;;;;26.81;21.18;99618.42;1643059;86;20905;-73
2022/09/08 11:37:38;;;;;;;4.45;2.22;;;;;;;26.37;22.08;99620.84;1645186;86;20940;-73
2022/09/08 11:40:36;;;;;;;10.00;2.50;;;;;;;26.34;22.22;99625.30;1633194;86;20992;-79
2022/09/08 11:43:54;;;;;;;5.17;1.90;;;;;;;26.38;21.99;99619.63;1654729;85;21181;-78
2022/09/08 11:46:46;;;;;;;3.22;2.10;;;;;;;26.26;21.60;99620.33;1653878;85;21054;-77
2022/09/08 11:49:27;;;;;;;8.63;2.20;;;;;;;26.13;22.07;99620.68;1641176;85;21086;-79
2022/09/08 11:52:13;;;;;;;5.17;2.08;;;;;;;26.07;22.40;99618.13;1641226;86;20971;-80
2022/09/08 11:54:57;;;;;;;3.12;1.95;;;;;;;26.04;23.33;99619.58;1604471;88;21010;-74
2022/09/08 11:57:36;;;;;;;7.08;2.20;;;;;;;26.12;22.86;99614.86;1647784;85;21299;-75
2022/09/08 12:00:29;;;;;;;7.45;2.10;;;;;;;26.36;22.88;99616.43;1657142;85;20975;-75
2022/09/08 12:03:16;;;;;;;3.30;1.80;;;;;;;26.56;22.16;99618.18;1653377;85;21505;-72
2022/09/08 12:06:02;;;;;;;4.33;2.35;;;;;;;26.76;21.12;99616.08;1621580;86;21548;-75
2022/09/08 12:08:53;;;;;;;3.67;1.82;;;;;;;26.88;20.88;99615.51;1652405;85;21087;-77
2022/09/08 12:12:11;;;;;;;5.58;2.37;;;;;;;26.99;19.63;99601.30;1651544;85;21997;-75
2022/09/08 12:15:04;;;;;;;3.42;2.27;;;;;;;26.96;20.13;99609.38;1645623;85;20881;-75
2022/09/08 12:18:21;;;;;;;6.92;2.10;;;;;;;27.21;20.21;99602.54;1664304;85;20980;-71
2022/09/08 12:21:28;;;;;;;7.72;2.42;;;;;;;27.42;19.03;99605.02;1666015;84;21579;-74
2022/09/08 12:24:11;;;;;;;5.08;1.90;;;;;;;27.27;19.22;99602.23;1652228;86;21072;-73
2022/09/08 12:26:52;;;;;;;4.83;2.15;;;;;;;27.25;19.54;99606.89;1651139;85;21934;-70
2022/09/08 12:29:48;;;;;;;10.03;2.50;;;;;;;27.36;19.60;99598.88;1655578;85;21019;-84
2022/09/08 12:32:29;;;;;;;5.20;2.17;;;;;;;27.44;19.35;99598.95;1626600;85;21067;-68